Time;durP1;ratioP1;P1;durP2;ratioP2;P2;SDS_P1;SDS_P2;PMS_P1;PMS_P2;Temp;Humidity;BMP_temperature;BMP_pressure;BME280_temperature;BME280_humidity;BME280_pressure;Samples;Min_cycle;Max_cycle;Signal;HPM_P1;HPM_P2
2022/06/03 00:01:25;;;;;;;2.97;2.67;;;16.20;37.90;;;;;;5074382;28;20696;-38
2022/06/03 00:04:00;;;;;;;3.50;2.95;;;16.20;37.70;;;;;;5074808;28;20191;-38
2022/06/03 00:06:32;;;;;;;3.92;2.95;;;16.20;37.70;;;;;;5074597;28;20173;-38
2022/06/03 00:09:12;;;;;;;2.45;2.20;;;16.20;37.90;;;;;;5074236;28;20156;-38
2022/06/03 00:12:04;;;;;;;2.55;2.28;;;16.10;38.50;;;;;;5074581;28;20266;-38
2022/06/03 00:14:51;;;;;;;3.15;2.75;;;16.10;37.80;;;;;;5073950;28;20179;-39
2022/06/03 00:17:40;;;;;;;3.83;3.22;;;16.10;37.70;;;;;;5074373;28;20628;-38
2022/06/03 00:20:27;;;;;;;3.72;2.40;;;16.10;37.70;;;;;;5074452;28;20695;-38
2022/06/03 00:23:24;;;;;;;2.88;2.58;;;16.00;37.90;;;;;;5074094;28;20168;-38
2022/06/03 00:25:55;;;;;;;2.90;2.60;;;15.90;38.10;;;;;;5073847;28;20222;-38
2022/06/03 00:28:42;;;;;;;3.00;2.70;;;15.80;38.20;;;;;;5074154;28;20269;-38
2022/06/03 00:31:46;;;;;;;14.80;3.03;;;15.80;37.90;;;;;;5073902;28;20200;-38
2022/06/03 00:34:28;;;;;;;3.33;2.50;;;15.80;38.00;;;;;;5073642;28;20650;-37
2022/06/03 00:37:00;;;;;;;3.20;2.20;;;15.70;38.10;;;;;;5073752;28;20252;-38
2022/06/03 00:39:40;;;;;;;3.97;3.17;;;15.70;38.20;;;;;;5073718;28;20656;-38
2022/06/03 00:42:29;;;;;;;3.08;2.42;;;15.60;38.20;;;;;;5073600;28;20208;-38
2022/06/03 00:45:36;;;;;;;3.42;3.00;;;15.60;38.20;;;;;;5055388;28;20539;-39
2022/06/03 00:48:10;;;;;;;5.88;3.58;;;15.50;38.20;;;;;;5073584;28;20188;-38
2022/06/03 00:50:58;;;;;;;4.05;3.00;;;15.50;38.40;;;;;;5073382;28;20250;-38
2022/06/03 00:53:31;;;;;;;3.50;2.65;;;15.50;38.30;;;;;;5073487;28;20331;-38
2022/06/03 00:56:10;;;;;;;3.70;2.75;;;15.40;38.40;;;;;;5073217;28;20196;-38
2022/06/03 00:58:47;;;;;;;3.75;3.28;;;15.40;38.40;;;;;;5073479;28;20203;-38
2022/06/03 01:01:41;;;;;;;3.13;2.83;;;15.40;38.40;;;;;;5073241;28;20283;-39
2022/06/03 01:04:13;;;;;;;2.85;2.65;;;15.40;38.50;;;;;;5072596;28;20223;-38
2022/06/03 01:07:12;;;;;;;3.20;2.60;;;15.30;38.50;;;;;;5073185;28;20173;-38
2022/06/03 01:09:52;;;;;;;3.50;3.20;;;15.30;38.30;;;;;;5072986;28;20272;-38
2022/06/03 01:13:03;;;;;;;3.30;2.75;;;15.30;38.30;;;;;;5073330;28;20200;-38
2022/06/03 01:15:55;;;;;;;3.42;2.50;;;15.30;38.60;;;;;;5052397;28;20246;-38
2022/06/03 01:18:29;;;;;;;3.30;2.65;;;15.20;38.50;;;;;;5072975;28;20180;-38
2022/06/03 01:21:08;;;;;;;3.75;2.80;;;15.20;38.70;;;;;;5072778;28;20577;-38
2022/06/03 01:23:49;;;;;;;5.15;3.13;;;15.20;38.80;;;;;;5073177;28;20168;-38
2022/06/03 01:26:53;;;;;;;3.05;2.55;;;15.10;38.60;;;;;;5072133;28;20532;-38
2022/06/03 01:29:19;;;;;;;2.67;2.47;;;15.10;38.80;;;;;;5072220;28;20211;-38
2022/06/03 01:32:32;;;;;;;3.83;3.43;;;15.00;38.80;;;;;;5072939;28;20641;-38
2022/06/03 01:35:24;;;;;;;3.22;2.80;;;15.00;38.80;;;;;;4990903;28;20678;-38
2022/06/03 01:37:55;;;;;;;3.92;2.88;;;15.00;38.80;;;;;;5072691;28;20600;-38
2022/06/03 01:40:56;;;;;;;4.07;3.33;;;14.90;39.00;;;;;;5072809;28;20169;-38
2022/06/03 01:43:32;;;;;;;3.03;2.72;;;14.90;39.00;;;;;;5061632;28;20223;-38
2022/06/03 01:46:30;;;;;;;3.63;3.20;;;14.90;39.20;;;;;;5072636;28;20168;-38
2022/06/03 01:49:14;;;;;;;3.63;2.42;;;14.80;39.10;;;;;;5072358;28;20752;-38
2022/06/03 01:51:55;;;;;;;3.05;2.80;;;14.80;39.30;;;;;;5072149;28;20212;-38
2022/06/03 01:55:04;;;;;;;2.97;2.60;;;14.70;39.50;;;;;;5072496;28;20263;-38
2022/06/03 01:57:59;;;;;;;3.33;2.53;;;14.70;39.50;;;;;;5072366;28;20265;-38
2022/06/03 02:00:34;;;;;;;4.03;2.42;;;14.70;39.30;;;;;;5072634;28;20563;-38
2022/06/03 02:03:13;;;;;;;2.90;2.60;;;14.70;39.50;;;;;;5072649;28;20267;-38
2022/06/03 02:05:45;;;;;;;3.65;2.90;;;14.70;39.50;;;;;;5072421;28;20188;-38
2022/06/03 02:08:46;;;;;;;3.22;2.70;;;14.70;39.60;;;;;;5072414;28;20181;-38
2022/06/03 02:11:35;;;;;;;3.47;2.22;;;14.60;39.50;;;;;;5072000;28;20711;-38
2022/06/03 02:14:12;;;;;;;3.72;3.38;;;14.60;39.50;;;;;;5025365;28;20185;-38
2022/06/03 02:17:26;;;;;;;5.97;3.20;;;14.50;39.50;;;;;;5072065;28;20643;-38
2022/06/03 02:20:34;;;;;;;3.47;3.17;;;14.50;39.50;;;;;;4971104;28;20303;-38
2022/06/03 02:23:31;;;;;;;3.90;3.13;;;14.50;39.40;;;;;;5071998;28;20674;-38
2022/06/03 02:26:15;;;;;;;3.15;2.80;;;14.40;39.40;;;;;;5072221;28;20223;-38
2022/06/03 02:28:49;;;;;;;3.75;3.25;;;14.40;39.50;;;;;;5071962;28;20173;-38
2022/06/03 02:31:43;;;;;;;3.53;2.65;;;14.40;39.50;;;;;;5071757;28;20207;-38
2022/06/03 02:34:27;;;;;;;3.42;2.75;;;14.40;39.50;;;;;;5071860;28;20684;-38
2022/06/03 02:37:18;;;;;;;3.20;2.90;;;14.30;39.60;;;;;;5072484;28;20219;-38
2022/06/03 02:40:11;;;;;;;2.72;2.53;;;14.30;39.40;;;;;;5075897;28;20179;-38
2022/06/03 02:42:56;;;;;;;3.65;2.95;;;14.30;39.50;;;;;;5076221;28;20227;-38
2022/06/03 02:46:03;;;;;;;3.33;2.90;;;14.20;39.50;;;;;;5075801;28;20710;-38
2022/06/03 02:48:41;;;;;;;3.40;2.88;;;14.20;39.60;;;;;;5076079;28;20263;-38
2022/06/03 02:51:26;;;;;;;5.43;2.88;;;14.20;39.60;;;;;;5075470;28;20266;-38
2022/06/03 02:54:16;;;;;;;3.78;3.15;;;14.10;39.70;;;;;;5075693;28;20609;-38
2022/06/03 02:57:03;;;;;;;6.50;2.50;;;14.10;39.60;;;;;;5075866;28;20174;-38
2022/06/03 02:59:47;;;;;;;3.33;2.78;;;14.10;39.80;;;;;;5076019;28;20563;-38
2022/06/03 03:02:25;;;;;;;4.45;3.28;;;14.10;39.70;;;;;;5075545;28;20234;-38
2022/06/03 03:04:50;;;;;;;3.10;2.58;;;14.10;39.60;;;;;;5075774;28;20547;-38
2022/06/03 03:07:43;;;;;;;4.00;3.03;;;14.00;39.70;;;;;;5075309;28;20184;-37
2022/06/03 03:10:27;;;;;;;2.50;1.92;;;14.00;39.70;;;;;;5075556;28;20196;-37
2022/06/03 03:12:59;;;;;;;4.10;3.50;;;14.00;39.70;;;;;;5075704;28;20187;-38
2022/06/03 03:15:46;;;;;;;4.43;3.28;;;14.00;39.70;;;;;;5075187;28;20174;-38
2022/06/03 03:18:17;;;;;;;4.15;2.30;;;14.00;39.70;;;;;;5075137;28;20157;-38
2022/06/03 03:21:05;;;;;;;4.15;2.95;;;13.90;39.70;;;;;;5075310;28;20200;-37
2022/06/03 03:23:42;;;;;;;3.25;2.65;;;13.90;39.70;;;;;;5075106;28;20180;-38
2022/06/03 03:26:15;;;;;;;3.75;3.42;;;13.90;39.80;;;;;;5075111;28;20173;-38
2022/06/03 03:29:00;;;;;;;3.83;3.42;;;13.90;39.80;;;;;;5075175;28;20227;-38
2022/06/03 03:31:55;;;;;;;2.67;2.45;;;13.90;40.00;;;;;;5074993;28;20200;-38
2022/06/03 03:34:49;;;;;;;3.08;2.75;;;13.90;40.20;;;;;;5074838;28;20168;-38
2022/06/03 03:37:32;;;;;;;3.42;3.13;;;13.80;40.10;;;;;;5074957;28;20188;-37
2022/06/03 03:40:16;;;;;;;3.45;2.47;;;13.90;40.30;;;;;;5075305;28;20153;-38
2022/06/03 03:43:10;;;;;;;3.72;3.25;;;13.90;40.30;;;;;;5075126;28;20176;-38
2022/06/03 03:46:02;;;;;;;3.67;2.58;;;13.90;40.40;;;;;;5074684;28;20161;-37
2022/06/03 03:48:43;;;;;;;3.88;3.47;;;14.00;40.50;;;;;;5056217;28;20177;-38
2022/06/03 03:51:49;;;;;;;3.92;3.25;;;14.00;40.60;;;;;;5074653;28;20575;-37
2022/06/03 03:54:34;;;;;;;3.00;2.70;;;14.00;40.60;;;;;;5074454;28;20168;-38
2022/06/03 03:57:37;;;;;;;3.33;2.95;;;14.10;40.60;;;;;;5074463;28;20516;-37
2022/06/03 04:00:23;;;;;;;4.07;3.17;;;14.20;40.70;;;;;;5074527;28;20169;-37
2022/06/03 04:03:26;;;;;;;3.75;3.03;;;14.20;40.60;;;;;;5074383;28;20184;-37
2022/06/03 04:06:28;;;;;;;3.95;2.92;;;14.30;40.80;;;;;;5074561;28;20263;-37
2022/06/03 04:09:12;;;;;;;3.63;2.95;;;14.40;40.70;;;;;;5074249;28;20176;-37
2022/06/03 04:12:02;;;;;;;3.30;3.00;;;14.40;40.70;;;;;;5074356;28;20196;-37
2022/06/03 04:14:37;;;;;;;3.83;3.45;;;14.50;40.80;;;;;;5073995;28;20184;-37
2022/06/03 04:17:26;;;;;;;3.55;3.25;;;14.60;41.00;;;;;;5074219;28;20173;-37
2022/06/03 04:19:55;;;;;;;3.70;3.15;;;14.70;40.90;;;;;;5074390;28;20185;-37
2022/06/03 04:22:30;;;;;;;3.50;3.20;;;14.70;40.80;;;;;;5074222;28;20196;-37
2022/06/03 04:25:14;;;;;;;4.00;3.60;;;14.90;40.80;;;;;;5074006;28;20168;-37
2022/06/03 04:27:40;;;;;;;2.88;2.38;;;15.00;40.80;;;;;;5074213;28;20168;-37
2022/06/03 04:30:30;;;;;;;4.30;3.28;;;15.00;40.70;;;;;;5073996;28;20200;-37
2022/06/03 04:33:11;;;;;;;2.55;2.17;;;15.10;40.60;;;;;;5073988;28;20157;-38
2022/06/03 04:36:30;;;;;;;6.63;3.85;;;15.20;40.80;;;;;;5074031;28;20188;-37
2022/06/03 04:39:29;;;;;;;6.75;3.15;;;15.30;40.60;;;;;;5036160;28;20184;-37
2022/06/03 04:42:09;;;;;;;3.95;2.70;;;15.40;40.40;;;;;;5074879;28;20318;-37
2022/06/03 04:44:58;;;;;;;3.67;3.00;;;15.50;40.40;;;;;;5074626;28;20176;-38
2022/06/03 04:48:01;;;;;;;4.03;3.63;;;15.60;40.20;;;;;;5074245;28;20287;-38
2022/06/03 04:50:53;;;;;;;4.18;3.30;;;15.70;40.20;;;;;;5073120;28;20224;-37
2022/06/03 04:53:38;;;;;;;3.35;2.83;;;15.80;40.00;;;;;;5073482;28;20169;-37
2022/06/03 04:56:46;;;;;;;4.00;2.90;;;15.90;40.10;;;;;;5073316;28;20195;-37
2022/06/03 04:59:39;;;;;;;2.88;2.30;;;15.90;39.90;;;;;;5061852;28;20179;-38
2022/06/03 05:02:36;;;;;;;3.55;3.25;;;16.00;40.00;;;;;;5073527;28;20199;-37
2022/06/03 05:05:23;;;;;;;4.05;2.80;;;16.10;39.90;;;;;;5073101;28;20548;-37
2022/06/03 05:08:13;;;;;;;3.28;2.55;;;16.20;39.70;;;;;;5073262;28;20233;-37
2022/06/03 05:10:57;;;;;;;4.80;3.42;;;16.30;39.50;;;;;;5073014;28;20237;-38
2022/06/03 05:13:54;;;;;;;3.70;2.92;;;16.30;39.40;;;;;;5073392;28;20297;-37
2022/06/03 05:16:38;;;;;;;2.65;2.42;;;16.50;39.40;;;;;;5072903;28;20494;-38
2022/06/03 05:19:19;;;;;;;4.25;2.50;;;16.60;39.20;;;;;;5072934;28;20180;-38
2022/06/03 05:22:13;;;;;;;3.03;2.50;;;16.80;39.10;;;;;;5083787;22;20221;-41
2022/06/03 05:24:51;;;;;;;3.58;3.20;;;16.80;39.00;;;;;;5055136;28;20654;-41
2022/06/03 05:27:22;;;;;;;4.97;3.20;;;17.00;38.90;;;;;;5052809;28;20234;-41
2022/06/03 05:30:15;;;;;;;8.40;3.22;;;17.00;38.60;;;;;;5052708;28;20194;-41
2022/06/03 05:33:05;;;;;;;4.03;3.45;;;17.10;38.50;;;;;;5052576;28;20193;-40
2022/06/03 05:35:56;;;;;;;3.92;2.90;;;17.20;38.40;;;;;;5052445;28;20529;-42
2022/06/03 05:38:43;;;;;;;4.30;3.40;;;17.20;38.20;;;;;;5052697;28;20208;-42
2022/06/03 05:44:43;;;;;;;3.30;2.38;;;17.30;38.30;;;;;;5052380;28;20212;-42
2022/06/03 05:47:24;;;;;;;3.50;3.20;;;17.40;38.00;;;;;;5052450;28;20232;-42
2022/06/03 05:50:11;;;;;;;3.75;3.15;;;17.50;38.30;;;;;;5052300;28;20199;-42
2022/06/03 05:52:58;;;;;;;4.50;3.42;;;17.50;37.50;;;;;;5052297;28;20648;-42
2022/06/03 05:56:08;;;;;;;3.50;3.20;;;17.60;37.50;;;;;;5052170;28;20190;-41
2022/06/03 05:59:12;;;;;;;3.50;3.05;;;17.60;37.60;;;;;;5007648;28;20174;-41
2022/06/03 06:02:22;;;;;;;3.58;2.90;;;17.60;37.50;;;;;;5052342;28;20192;-41
2022/06/03 06:05:14;;;;;;;3.10;2.60;;;17.60;37.90;;;;;;5052083;28;20258;-41
2022/06/03 06:07:52;;;;;;;3.80;3.45;;;17.80;38.10;;;;;;5052256;28;20165;-41
2022/06/03 06:10:33;;;;;;;3.97;2.92;;;18.00;38.10;;;;;;5052316;28;20249;-40
2022/06/03 06:13:21;;;;;;;3.92;2.25;;;18.30;38.10;;;;;;5052101;28;20315;-41
2022/06/03 06:16:04;;;;;;;3.35;2.90;;;18.50;38.00;;;;;;5051843;28;20185;-41
2022/06/03 06:18:44;;;;;;;3.20;2.90;;;18.60;37.80;;;;;;5051875;28;20643;-41
2022/06/03 06:21:28;;;;;;;2.85;2.33;;;18.80;37.40;;;;;;5052040;28;20157;-41
2022/06/03 06:24:03;;;;;;;5.07;2.53;;;18.90;38.10;;;;;;5051850;28;20644;-41
2022/06/03 06:27:06;;;;;;;5.07;3.25;;;19.00;37.40;;;;;;5034000;28;20187;-41
2022/06/03 06:30:00;;;;;;;3.38;3.08;;;19.20;37.10;;;;;;5033894;28;20196;-41
2022/06/03 06:32:58;;;;;;;4.60;2.67;;;19.20;36.50;;;;;;5051687;28;20560;-41
2022/06/03 06:35:43;;;;;;;4.70;3.28;;;19.30;36.90;;;;;;5051887;28;20169;-41
2022/06/03 06:38:08;;;;;;;3.08;2.75;;;19.50;37.30;;;;;;5051775;28;20145;-41
2022/06/03 06:40:40;;;;;;;3.10;2.80;;;19.60;36.70;;;;;;5051686;28;20706;-41
2022/06/03 06:43:06;;;;;;;3.15;2.85;;;19.70;36.10;;;;;;5051671;28;20575;-41
2022/06/03 06:45:40;;;;;;;2.93;2.23;;;19.70;35.70;;;;;;5051667;28;20188;-40
2022/06/03 06:48:06;;;;;;;3.97;3.58;;;19.70;35.60;;;;;;5051446;28;20556;-41
2022/06/03 06:50:40;;;;;;;3.47;3.00;;;19.70;35.70;;;;;;5051636;28;20262;-41
2022/06/03 06:53:14;;;;;;;2.33;2.13;;;19.90;36.00;;;;;;5051882;28;20220;-41
2022/06/03 06:56:01;;;;;;;3.03;2.55;;;20.00;35.30;;;;;;5051787;28;20193;-41
2022/06/03 06:58:50;;;;;;;4.88;2.55;;;20.10;35.30;;;;;;5051601;28;20199;-41
2022/06/03 07:01:28;;;;;;;3.08;2.78;;;20.20;35.80;;;;;;5051585;28;20161;-41
2022/06/03 07:04:08;;;;;;;3.70;2.15;;;20.40;35.00;;;;;;5051825;28;20241;-41
2022/06/03 07:06:42;;;;;;;3.47;2.40;;;20.60;35.30;;;;;;5051658;28;20260;-43
2022/06/03 07:09:11;;;;;;;3.58;2.88;;;20.80;35.40;;;;;;5051525;28;20169;-43
2022/06/03 07:12:09;;;;;;;3.05;2.65;;;21.00;35.30;;;;;;5051626;28;20197;-43
2022/06/03 07:15:00;;;;;;;4.68;2.60;;;21.20;34.80;;;;;;5044212;28;20188;-43
2022/06/03 07:20:52;;;;;;;2.80;1.73;;;21.70;35.30;;;;;;5051550;28;20639;-43
2022/06/03 07:23:42;;;;;;;3.42;2.20;;;21.90;34.20;;;;;;5052544;28;20224;-43
2022/06/03 07:26:15;;;;;;;1.88;1.58;;;22.10;34.50;;;;;;5055069;28;20544;-44
2022/06/03 07:28:56;;;;;;;2.27;1.80;;;22.30;34.10;;;;;;5054897;28;20177;-43
2022/06/03 07:31:30;;;;;;;3.30;1.80;;;22.50;34.20;;;;;;5054852;28;21015;-43
2022/06/03 07:34:04;;;;;;;3.45;2.42;;;22.70;34.00;;;;;;5054921;28;20410;-43
2022/06/03 07:37:00;;;;;;;2.78;1.65;;;22.90;34.00;;;;;;5055144;28;20169;-42
2022/06/03 07:39:43;;;;;;;4.47;2.53;;;23.10;33.20;;;;;;5047651;28;20613;-42
2022/06/03 07:42:33;;;;;;;2.13;1.50;;;23.30;32.90;;;;;;5054804;28;20412;-42
2022/06/03 07:45:17;;;;;;;2.13;1.53;;;23.50;32.30;;;;;;5054671;28;20396;-42
2022/06/03 07:47:44;;;;;;;2.03;1.50;;;23.60;32.30;;;;;;5054565;28;20431;-42
2022/06/03 07:50:17;;;;;;;5.97;1.93;;;23.80;32.10;;;;;;5054547;28;20444;-41
2022/06/03 07:52:50;;;;;;;2.70;1.77;;;24.00;31.30;;;;;;5054632;28;20431;-42
2022/06/03 07:55:22;;;;;;;4.47;1.30;;;24.10;31.50;;;;;;5054793;28;20461;-42
2022/06/03 07:57:55;;;;;;;1.80;1.40;;;24.20;30.90;;;;;;5054441;28;20400;-43
2022/06/03 08:00:22;;;;;;;2.27;1.40;;;24.40;31.50;;;;;;5054391;28;20442;-44
2022/06/03 08:03:05;;;;;;;2.00;1.20;;;24.50;31.20;;;;;;5054636;28;20431;-44
2022/06/03 08:05:32;;;;;;;2.07;1.50;;;24.70;30.00;;;;;;5054254;28;20408;-44
2022/06/03 08:10:56;;;;;;;2.40;1.67;;;24.90;29.80;;;;;;5054332;28;20439;-43
2022/06/03 08:13:28;;;;;;;1.83;1.23;;;25.10;29.40;;;;;;5054166;28;20992;-42
2022/06/03 08:16:02;;;;;;;2.23;1.33;;;25.10;29.40;;;;;;5054077;28;20434;-41
2022/06/03 08:18:33;;;;;;;1.90;1.53;;;25.20;26.70;;;;;;5054005;28;20442;-42
2022/06/03 08:21:06;;;;;;;2.00;1.37;;;25.30;29.00;;;;;;5054042;28;20763;-42
2022/06/03 08:23:34;;;;;;;1.77;1.40;;;25.40;29.40;;;;;;5053908;28;20435;-42
2022/06/03 08:26:07;;;;;;;2.00;1.70;;;25.60;28.00;;;;;;5054101;28;20507;-42
2022/06/03 08:28:35;;;;;;;1.60;1.17;;;25.60;28.20;;;;;;5054178;28;20475;-42
2022/06/03 08:31:05;;;;;;;2.40;1.83;;;25.80;29.00;;;;;;5053800;28;20449;-42
2022/06/03 08:33:57;;;;;;;2.00;1.33;;;25.90;29.00;;;;;;5053719;28;20523;-42
2022/06/03 08:36:27;;;;;;;2.37;1.37;;;26.00;28.80;;;;;;5045113;28;20416;-42
2022/06/03 08:39:16;;;;;;;2.50;1.73;;;26.10;28.20;;;;;;5053618;28;20412;-42
2022/06/03 08:42:08;;;;;;;2.80;1.63;;;26.20;28.50;;;;;;5053599;28;20428;-41
2022/06/03 08:44:46;;;;;;;3.40;1.43;;;26.30;27.80;;;;;;5053320;28;20435;-42
2022/06/03 08:47:19;;;;;;;2.27;1.70;;;26.30;27.40;;;;;;5053445;28;20952;-42
2022/06/03 08:50:03;;;;;;;2.40;1.57;;;26.30;27.90;;;;;;5053417;28;20443;-42
2022/06/03 08:52:50;;;;;;;1.90;1.20;;;26.50;27.70;;;;;;5053346;28;20416;-42
2022/06/03 08:55:26;;;;;;;1.70;1.30;;;26.60;28.00;;;;;;5053374;28;20492;-42
2022/06/03 08:57:59;;;;;;;2.43;1.63;;;26.70;27.50;;;;;;5053425;28;20615;-42
2022/06/03 09:00:30;;;;;;;4.50;1.90;;;26.70;26.20;;;;;;5053202;28;20485;-42
2022/06/03 09:03:19;;;;;;;2.70;1.67;;;26.70;26.60;;;;;;5053182;28;21004;-42
2022/06/03 09:05:48;;;;;;;5.13;1.73;;;26.90;26.90;;;;;;5053135;28;20389;-42
2022/06/03 09:08:26;;;;;;;3.27;1.63;;;26.90;26.30;;;;;;5053162;28;20400;-42
2022/06/03 09:11:08;;;;;;;1.80;1.23;;;27.00;27.20;;;;;;5053055;28;20436;-41
2022/06/03 09:13:59;;;;;;;2.27;1.60;;;27.10;26.50;;;;;;5052989;28;20547;-42
2022/06/03 09:16:26;;;;;;;2.83;1.50;;;27.10;26.40;;;;;;5053117;28;20921;-42
2022/06/03 09:19:08;;;;;;;1.90;1.40;;;27.20;27.00;;;;;;5053173;28;20408;-43
2022/06/03 09:21:35;;;;;;;2.60;1.70;;;27.30;26.90;;;;;;5052910;28;20837;-43
2022/06/03 09:24:09;;;;;;;2.47;1.23;;;27.40;27.40;;;;;;5053026;28;20392;-42
2022/06/03 09:26:51;;;;;;;2.70;1.80;;;27.50;25.60;;;;;;5053144;28;20387;-42
2022/06/03 09:29:19;;;;;;;1.60;1.10;;;27.60;25.60;;;;;;5052636;28;20868;-42
2022/06/03 09:32:02;;;;;;;1.90;1.40;;;27.70;25.90;;;;;;5052874;28;20492;-43
2022/06/03 09:34:47;;;;;;;2.50;1.70;;;27.80;25.30;;;;;;5052927;28;20465;-42
2022/06/03 09:37:21;;;;;;;3.37;1.30;;;27.90;25.50;;;;;;5052602;28;20741;-43
2022/06/03 09:39:50;;;;;;;2.43;1.90;;;28.00;24.20;;;;;;5052862;28;20744;-42
2022/06/03 09:42:19;;;;;;;1.70;1.30;;;28.00;23.60;;;;;;5052733;28;20833;-43
2022/06/03 09:44:47;;;;;;;2.23;1.30;;;28.00;25.50;;;;;;5052252;28;20508;-42
2022/06/03 09:47:18;;;;;;;1.87;1.43;;;28.10;24.70;;;;;;5051861;28;20403;-44
2022/06/03 09:49:50;;;;;;;2.00;1.60;;;28.20;25.20;;;;;;5052326;28;20487;-43
2022/06/03 09:52:26;;;;;;;2.63;1.63;;;28.30;24.20;;;;;;5052493;28;20474;-44
2022/06/03 09:54:54;;;;;;;2.47;2.00;;;28.40;24.50;;;;;;5052505;28;20490;-44
2022/06/03 09:57:25;;;;;;;3.60;1.47;;;28.50;23.80;;;;;;5052485;28;20408;-44
2022/06/03 10:00:03;;;;;;;2.50;1.87;;;28.60;24.50;;;;;;5052191;28;20403;-44
2022/06/03 10:02:31;;;;;;;2.00;1.50;;;28.60;21.60;;;;;;5052236;28;20431;-44
2022/06/03 10:05:00;;;;;;;2.33;1.57;;;28.50;22.90;;;;;;5052010;28;20511;-44
2022/06/03 10:07:26;;;;;;;2.00;1.47;;;28.60;23.00;;;;;;5052321;28;20419;-44
2022/06/03 10:12:58;;;;;;;2.27;1.60;;;28.70;23.60;;;;;;5052217;28;20430;-44
2022/06/03 10:15:43;;;;;;;3.67;2.13;;;28.70;22.70;;;;;;5051984;28;20411;-44
2022/06/03 10:18:13;;;;;;;4.00;2.00;;;28.80;23.50;;;;;;5051965;28;20439;-44
2022/06/03 10:20:39;;;;;;;2.83;1.73;;;28.90;23.80;;;;;;5052232;28;20407;-44
2022/06/03 10:23:08;;;;;;;11.60;2.40;;;28.90;23.50;;;;;;5051834;28;20455;-45
2022/06/03 10:25:40;;;;;;;3.20;2.17;;;29.00;24.10;;;;;;5051940;28;20446;-44
2022/06/03 10:28:08;;;;;;;2.23;2.00;;;29.10;23.30;;;;;;5051847;28;20726;-44
2022/06/03 10:30:37;;;;;;;2.23;1.60;;;29.10;23.00;;;;;;5051853;28;20454;-44
2022/06/03 10:33:05;;;;;;;2.40;1.90;;;29.10;23.20;;;;;;5051818;28;20513;-43
2022/06/03 10:35:38;;;;;;;2.40;1.40;;;29.10;21.70;;;;;;5051632;28;20412;-43
2022/06/03 10:38:06;;;;;;;4.17;2.43;;;29.20;23.40;;;;;;5051574;28;20412;-43
2022/06/03 10:40:33;;;;;;;2.17;1.73;;;29.30;24.00;;;;;;5051702;28;20806;-42
2022/06/03 10:43:01;;;;;;;2.30;1.63;;;29.40;23.60;;;;;;5052218;28;20926;-42
2022/06/03 10:45:29;;;;;;;4.83;1.93;;;29.50;23.40;;;;;;5052838;28;20416;-42
2022/06/03 10:47:55;;;;;;;2.10;1.83;;;29.50;23.00;;;;;;5052516;28;20411;-43
2022/06/03 10:50:27;;;;;;;2.83;1.83;;;29.60;22.70;;;;;;5051643;28;20466;-43
2022/06/03 11:01:53;;;;;;;1.90;1.40;;;30.00;23.50;;;;;;5055803;28;20497;-43
2022/06/03 11:04:37;;;;;;;2.57;2.17;;;30.00;23.70;;;;;;5055471;28;20404;-43
2022/06/03 11:07:23;;;;;;;2.57;1.73;;;30.10;22.20;;;;;;5055402;28;20918;-43
2022/06/03 11:10:02;;;;;;;2.17;1.53;;;30.10;22.80;;;;;;5055661;28;20454;-43
2022/06/03 11:12:29;;;;;;;2.67;2.10;;;30.10;21.70;;;;;;5055309;28;20426;-42
2022/06/03 11:14:56;;;;;;;1.90;1.60;;;29.90;22.90;;;;;;5055309;28;21091;-43
2022/06/03 11:17:23;;;;;;;2.40;1.80;;;29.90;23.30;;;;;;5055531;28;20453;-43
2022/06/03 11:19:55;;;;;;;2.00;1.40;;;30.10;23.20;;;;;;5055239;28;20415;-43
2022/06/03 11:22:35;;;;;;;2.30;1.80;;;30.10;23.30;;;;;;5054992;28;20822;-43
2022/06/03 11:25:03;;;;;;;3.10;1.63;;;30.30;23.00;;;;;;5055306;28;20388;-42
2022/06/03 11:27:52;;;;;;;2.07;1.70;;;30.40;23.00;;;;;;5054931;28;20901;-43
2022/06/03 11:30:31;;;;;;;2.60;1.80;;;30.50;23.10;;;;;;5055154;28;20475;-43
2022/06/03 11:33:04;;;;;;;2.30;2.07;;;30.70;22.90;;;;;;5055114;28;20421;-43
2022/06/03 11:35:55;;;;;;;3.30;2.00;;;30.70;23.20;;;;;;5054879;28;20474;-43
2022/06/03 11:38:34;;;;;;;2.10;1.50;;;30.70;22.60;;;;;;5054555;28;20495;-43
2022/06/03 11:41:12;;;;;;;3.10;1.83;;;30.80;21.70;;;;;;5069252;23;20581;-39
2022/06/03 11:44:08;;;;;;;3.00;2.10;;;30.70;22.20;;;;;;5066458;28;20493;-39
2022/06/03 11:46:38;;;;;;;2.40;1.67;;;30.80;22.70;;;;;;5074730;28;20386;-38
2022/06/03 11:49:06;;;;;;;2.27;1.77;;;30.80;21.60;;;;;;5075017;28;20486;-39
2022/06/03 11:51:33;;;;;;;2.20;1.70;;;30.80;21.80;;;;;;5074682;28;20459;-39
2022/06/03 11:53:59;;;;;;;2.40;1.57;;;30.80;22.00;;;;;;5074570;28;20395;-39
2022/06/03 11:56:28;;;;;;;2.80;2.27;;;30.70;21.10;;;;;;5074988;28;20413;-39
2022/06/03 11:59:05;;;;;;;2.47;1.90;;;30.80;22.30;;;;;;5074877;28;20548;-39
2022/06/03 12:01:37;;;;;;;3.30;1.90;;;30.80;22.60;;;;;;5075193;28;20426;-39
2022/06/03 12:04:10;;;;;;;2.80;1.80;;;30.80;22.50;;;;;;5074585;28;20533;-39
2022/06/03 12:07:02;;;;;;;3.47;2.90;;;30.90;21.90;;;;;;5074664;28;20407;-39
2022/06/03 12:09:28;;;;;;;2.47;2.00;;;30.90;22.20;;;;;;5073391;28;20443;-39
2022/06/03 12:14:57;;;;;;;2.37;1.90;;;30.80;21.90;;;;;;5074323;28;20151;-39
2022/06/03 12:17:32;;;;;;;2.17;1.67;;;30.70;22.10;;;;;;5074522;28;20385;-39
2022/06/03 12:20:15;;;;;;;2.17;1.73;;;30.70;22.60;;;;;;5074397;28;20405;-40
2022/06/03 12:22:41;;;;;;;2.70;1.90;;;30.70;22.50;;;;;;5074270;28;20423;-39
2022/06/03 12:25:32;;;;;;;2.80;2.50;;;30.80;22.30;;;;;;5056143;28;20407;-39
2022/06/03 12:28:03;;;;;;;1.87;1.40;;;30.90;22.70;;;;;;5074330;28;20632;-40
2022/06/03 12:30:42;;;;;;;2.30;1.90;;;30.90;22.40;;;;;;5074036;28;20445;-39
2022/06/03 12:33:45;;;;;;;2.40;1.80;;;31.10;22.50;;;;;;5074464;28;20386;-39
2022/06/03 12:36:50;;;;;;;2.37;1.60;;;31.20;22.20;;;;;;5074011;28;20420;-40
2022/06/03 12:39:21;;;;;;;3.03;2.20;;;31.20;22.10;;;;;;5074635;28;20414;-39
2022/06/03 12:41:46;;;;;;;3.43;2.13;;;31.30;22.30;;;;;;5073976;28;20442;-40
2022/06/03 12:44:37;;;;;;;2.10;1.70;;;31.30;23.10;;;;;;5074719;28;20406;-40
2022/06/03 12:47:18;;;;;;;2.10;1.47;;;31.40;22.00;;;;;;5073974;28;20169;-39
2022/06/03 12:49:44;;;;;;;2.23;1.77;;;31.40;21.60;;;;;;5073987;28;20442;-40
2022/06/03 12:52:33;;;;;;;2.80;1.77;;;31.50;22.20;;;;;;5073843;28;20489;-39
2022/06/03 12:55:23;;;;;;;2.90;2.10;;;31.50;21.30;;;;;;5073884;28;20176;-40
2022/06/03 12:58:02;;;;;;;3.30;1.83;;;31.60;22.10;;;;;;5074131;28;20398;-39
2022/06/03 13:00:34;;;;;;;2.17;1.97;;;31.70;21.50;;;;;;5074263;28;20488;-39
2022/06/03 13:03:20;;;;;;;2.10;1.87;;;31.60;21.60;;;;;;5073778;28;21099;-39
2022/06/03 13:05:50;;;;;;;2.20;1.53;;;31.50;21.40;;;;;;5059580;28;20428;-39
2022/06/03 13:08:28;;;;;;;2.20;2.00;;;31.40;21.40;;;;;;5073626;28;20953;-39
2022/06/03 13:11:05;;;;;;;2.50;1.93;;;31.30;20.90;;;;;;5073766;28;20466;-39
2022/06/03 13:13:34;;;;;;;2.20;1.70;;;31.20;21.10;;;;;;5073535;28;20429;-40
2022/06/03 13:16:19;;;;;;;2.10;1.50;;;31.30;21.80;;;;;;5073340;28;20402;-39
2022/06/03 13:18:52;;;;;;;2.17;1.60;;;31.40;20.20;;;;;;5073737;28;20406;-39
2022/06/03 13:21:28;;;;;;;2.97;2.00;;;31.40;20.70;;;;;;5072424;28;20482;-39
2022/06/03 13:24:24;;;;;;;1.90;1.40;;;31.50;20.00;;;;;;5074286;28;20414;-40
2022/06/03 13:27:23;;;;;;;2.00;1.50;;;31.50;20.80;;;;;;5073936;28;20966;-40
2022/06/03 13:29:49;;;;;;;2.10;1.60;;;31.60;20.10;;;;;;5074094;28;20537;-40
2022/06/03 13:32:21;;;;;;;2.47;2.10;;;31.70;20.60;;;;;;5074047;28;20470;-39
2022/06/03 13:34:47;;;;;;;2.47;1.60;;;31.80;21.80;;;;;;5073775;28;20160;-40
2022/06/03 13:37:21;;;;;;;2.10;1.53;;;32.00;21.80;;;;;;5074109;28;20452;-40
2022/06/03 13:39:50;;;;;;;3.07;2.20;;;32.10;20.50;;;;;;5074152;28;20409;-38
2022/06/03 13:45:03;;;;;;;3.37;1.87;;;31.90;19.80;;;;;;5072646;28;20437;-38
2022/06/03 13:47:42;;;;;;;2.70;2.20;;;31.90;19.70;;;;;;5072364;28;20414;-39
2022/06/03 13:50:14;;;;;;;2.10;1.53;;;32.00;20.80;;;;;;5072448;28;20274;-39
2022/06/03 13:52:46;;;;;;;2.77;1.90;;;31.90;20.20;;;;;;5072386;28;20422;-40
2022/06/03 13:55:41;;;;;;;2.40;2.00;;;32.00;20.10;;;;;;5072373;28;20482;-39
2022/06/03 13:58:14;;;;;;;3.03;2.00;;;32.00;20.30;;;;;;5073347;28;20484;-39
2022/06/03 14:00:54;;;;;;;2.70;2.00;;;32.00;21.10;;;;;;5073373;28;20391;-39
2022/06/03 14:03:52;;;;;;;3.83;2.27;;;32.10;21.40;;;;;;5072297;28;20920;-39
2022/06/03 14:06:40;;;;;;;2.90;2.03;;;32.00;20.30;;;;;;5072128;28;20395;-39
2022/06/03 14:09:20;;;;;;;2.80;1.87;;;32.00;20.60;;;;;;5072042;28;20440;-39
2022/06/03 14:11:53;;;;;;;3.03;1.67;;;32.00;20.60;;;;;;5072012;28;20462;-39
2022/06/03 14:14:34;;;;;;;2.50;1.90;;;31.90;20.00;;;;;;5072133;28;20387;-40
2022/06/03 14:17:11;;;;;;;2.47;1.70;;;31.90;20.30;;;;;;5072064;28;20403;-39
2022/06/03 14:19:51;;;;;;;2.47;1.60;;;32.00;21.00;;;;;;5072112;28;20444;-39
2022/06/03 14:22:41;;;;;;;1.80;1.40;;;32.00;20.40;;;;;;5071906;28;20509;-40
2022/06/03 14:25:18;;;;;;;2.80;2.30;;;31.90;20.20;;;;;;5071856;28;20394;-39
2022/06/03 14:28:19;;;;;;;3.07;2.20;;;31.80;20.80;;;;;;5071998;28;20398;-39